createdAt,value
2022-11-27T00:02:18.271Z,25.93
2022-11-27T00:07:21.573Z,38.77
2022-11-27T00:12:24.541Z,42.47
2022-11-27T00:17:27.710Z,48.73
2022-11-27T00:22:30.539Z,36.70
2022-11-27T00:27:33.637Z,33.10
2022-11-27T00:32:36.536Z,38.30
2022-11-27T00:37:39.534Z,56.23
2022-11-27T00:42:42.448Z,52.80
2022-11-27T00:47:45.724Z,44.80
2022-11-27T00:52:48.722Z,38.40
2022-11-27T00:57:51.681Z,28.03
2022-11-27T01:02:54.760Z,26.23
2022-11-27T01:07:57.851Z,24.73
2022-11-27T01:13:00.765Z,25.50
2022-11-27T01:18:04.001Z,23.90
2022-11-27T01:23:07.838Z,26.47
2022-11-27T01:28:10.871Z,25.30
2022-11-27T01:33:14.220Z,25.47
2022-11-27T01:38:17.594Z,30.53
2022-11-27T01:43:40.929Z,24.90
2022-11-27T01:48:43.751Z,21.50
2022-11-27T01:53:47.221Z,22.47
2022-11-27T01:58:50.285Z,21.97
2022-11-27T02:03:54.222Z,19.27
2022-11-27T02:08:57.234Z,16.73
2022-11-27T02:14:15.030Z,17.83
2022-11-27T02:19:42.799Z,16.57
2022-11-27T02:25:28.125Z,19.77
2022-11-27T02:30:36.022Z,22.77
2022-11-27T02:35:44.145Z,28.27
2022-11-27T02:40:46.900Z,21.37
2022-11-27T02:45:51.655Z,22.40
2022-11-27T02:50:54.546Z,21.87
2022-11-27T02:55:58.935Z,18.57
2022-11-27T03:01:03.661Z,17.57
2022-11-27T03:06:10.105Z,17.73
2022-11-27T03:11:15.313Z,16.87
2022-11-27T03:16:30.768Z,18.33
2022-11-27T03:21:41.859Z,17.23
2022-11-27T03:26:44.798Z,20.30
2022-11-27T03:31:48.359Z,19.47
2022-11-27T03:36:51.746Z,19.30
2022-11-27T03:42:02.603Z,17.87
2022-11-27T03:47:33.476Z,19.10
2022-11-27T03:52:49.789Z,18.40
2022-11-27T03:58:00.849Z,18.73
2022-11-27T04:03:04.317Z,18.77
2022-11-27T04:08:07.505Z,21.03
2022-11-27T04:13:10.256Z,20.90
2022-11-27T04:18:13.243Z,22.17
2022-11-27T04:23:16.175Z,23.47
2022-11-27T04:28:19.195Z,22.30
2022-11-27T04:33:22.672Z,24.67
2022-11-27T04:38:25.836Z,23.13
2022-11-27T04:43:29.201Z,26.43
2022-11-27T04:48:32.261Z,24.90
2022-11-27T04:53:35.078Z,26.17
2022-11-27T04:58:38.408Z,28.40
2022-11-27T05:03:41.358Z,27.80
2022-11-27T05:08:44.410Z,24.93
2022-11-27T05:13:47.423Z,25.97
2022-11-27T05:18:50.400Z,25.13
2022-11-27T05:23:53.378Z,28.50
2022-11-27T05:28:56.260Z,32.10
2022-11-27T05:33:59.432Z,28.50
2022-11-27T05:39:03.852Z,29.60
2022-11-27T05:44:06.886Z,27.97
2022-11-27T05:49:13.042Z,28.00
2022-11-27T05:54:16.234Z,33.07
2022-11-27T05:59:19.246Z,30.13
2022-11-27T06:04:22.266Z,30.50
2022-11-27T06:09:25.249Z,29.63
2022-11-27T06:14:28.109Z,33.20
2022-11-27T06:19:32.224Z,33.30
2022-11-27T06:24:35.944Z,28.80
2022-11-27T06:29:38.983Z,30.77
2022-11-27T06:34:42.203Z,27.60
2022-11-27T06:39:45.221Z,29.13
2022-11-27T06:44:48.179Z,31.07
2022-11-27T06:49:51.093Z,31.00
2022-11-27T06:54:54.242Z,30.67
2022-11-27T06:59:57.202Z,31.80
2022-11-27T07:05:00.381Z,31.67
2022-11-27T07:10:03.395Z,31.60
2022-11-27T07:15:06.842Z,28.20
2022-11-27T07:20:10.144Z,29.03
2022-11-27T07:25:21.881Z,28.37
2022-11-27T07:30:24.829Z,26.47
2022-11-27T07:35:27.774Z,24.33
2022-11-27T07:40:30.790Z,22.60
2022-11-27T07:45:33.656Z,24.37
2022-11-27T07:50:36.892Z,23.70
2022-11-27T07:55:40.712Z,27.20
2022-11-27T08:00:43.769Z,25.20
2022-11-27T08:05:47.028Z,32.97
2022-11-27T08:10:50.027Z,25.83
2022-11-27T08:15:53.179Z,21.07
2022-11-27T08:20:56.169Z,21.10
2022-11-27T08:25:59.140Z,25.07
2022-11-27T08:31:03.570Z,23.13
2022-11-27T08:36:09.745Z,23.40
2022-11-27T08:41:14.926Z,25.03
2022-11-27T08:46:18.137Z,24.10
2022-11-27T08:51:21.246Z,23.80
2022-11-27T08:56:25.886Z,24.17
2022-11-27T09:01:30.631Z,21.80
2022-11-27T09:06:35.202Z,21.53
2022-11-27T09:11:38.388Z,25.03
2022-11-27T09:16:41.217Z,47.37
2022-11-27T09:21:44.232Z,46.97
2022-11-27T09:26:47.341Z,68.67
2022-11-27T09:31:51.210Z,72.43
2022-11-27T09:36:54.375Z,46.80
2022-11-27T09:41:59.530Z,51.63
2022-11-27T09:47:16.555Z,25.30
2022-11-27T09:52:39.572Z,66.13
2022-11-27T09:57:43.182Z,20.93
2022-11-27T10:02:46.244Z,14.50
2022-11-27T10:08:06.920Z,21.07
2022-11-27T10:13:25.471Z,27.73
2022-11-27T10:18:39.445Z,16.27
2022-11-27T10:23:54.379Z,20.93
2022-11-27T10:29:20.936Z,20.40
2022-11-27T10:34:39.172Z,21.47
2022-11-27T10:39:55.609Z,21.37
2022-11-27T10:45:02.600Z,20.90
2022-11-27T10:50:14.526Z,20.27
2022-11-27T10:55:26.098Z,20.87
2022-11-27T11:00:29.288Z,20.63
2022-11-27T11:06:12.063Z,35.20
2022-11-27T11:11:02.297Z,35.17
2022-11-27T11:16:14.678Z,23.93
2022-11-27T11:21:40.695Z,23.13
2022-11-27T11:26:52.423Z,18.83
2022-11-27T11:31:57.398Z,25.17
2022-11-27T11:37:03.784Z,21.43
2022-11-27T11:42:11.586Z,19.87
2022-11-27T11:47:18.100Z,20.17
2022-11-27T11:52:42.658Z,19.43
2022-11-27T11:58:26.883Z,22.03
2022-11-27T12:03:44.324Z,25.13
2022-11-27T12:08:53.543Z,20.70
2022-11-27T12:14:05.987Z,15.50
2022-11-27T12:19:31.211Z,21.20
2022-11-27T12:24:45.914Z,21.13
2022-11-27T12:30:03.870Z,19.60
2022-11-27T12:35:17.550Z,17.10
2022-11-27T12:40:39.083Z,18.30
2022-11-27T12:45:49.178Z,32.23
2022-11-27T12:50:56.536Z,31.93
2022-11-27T12:56:02.361Z,48.70
2022-11-27T13:01:13.086Z,38.37
2022-11-27T13:06:22.714Z,37.40
2022-11-27T13:11:29.679Z,30.73
2022-11-27T13:16:45.557Z,101.63
2022-11-27T13:21:49.866Z,21.90
2022-11-27T13:27:16.548Z,32.33
2022-11-27T13:32:22.431Z,27.23
2022-11-27T13:37:35.281Z,22.37
2022-11-27T13:42:44.131Z,23.20
2022-11-27T13:47:47.872Z,28.70
2022-11-27T13:53:00.291Z,23.87
2022-11-27T13:58:04.541Z,25.13
2022-11-27T14:03:13.269Z,23.97
2022-11-27T14:08:48.768Z,78.17
2022-11-27T14:13:52.453Z,64.70
2022-11-27T14:18:57.931Z,64.33
2022-11-27T14:24:06.333Z,60.70
2022-11-27T14:29:11.699Z,54.83
2022-11-27T14:34:48.818Z,31.00
2022-11-27T14:39:51.664Z,29.03
2022-11-27T14:45:05.307Z,24.27
2022-11-27T14:50:13.888Z,24.07
2022-11-27T14:55:17.977Z,24.40
2022-11-27T15:00:32.653Z,27.37
2022-11-27T15:05:38.824Z,27.43
2022-11-27T15:10:42.158Z,28.80
2022-11-27T15:15:45.305Z,32.57
2022-11-27T15:20:48.302Z,32.97
2022-11-27T15:26:00.156Z,35.90
2022-11-27T15:31:30.025Z,35.20
2022-11-27T15:36:41.547Z,38.37
2022-11-27T15:42:01.658Z,48.00
2022-11-27T15:47:05.887Z,40.40
2022-11-27T15:52:08.928Z,49.30
2022-11-27T15:57:12.472Z,48.17
2022-11-27T16:02:18.145Z,49.63
2022-11-27T16:07:22.275Z,48.47
2022-11-27T16:12:26.071Z,47.20
2022-11-27T16:17:29.257Z,61.87
2022-11-27T16:22:32.111Z,50.73
2022-11-27T16:27:35.225Z,50.60
2022-11-27T16:32:41.256Z,48.37
2022-11-27T16:37:47.489Z,49.67
2022-11-27T16:42:50.692Z,53.23
2022-11-27T16:47:55.282Z,56.73
2022-11-27T16:52:59.135Z,57.30
2022-11-27T16:58:02.264Z,52.10
2022-11-27T17:03:05.831Z,62.77
2022-11-27T17:08:08.882Z,61.83
2022-11-27T17:13:12.138Z,50.70
2022-11-27T17:18:17.134Z,54.87
2022-11-27T17:23:20.422Z,55.37
2022-11-27T17:28:23.870Z,59.93
2022-11-27T17:33:27.408Z,70.27
2022-11-27T17:38:30.933Z,66.83
2022-11-27T17:43:35.126Z,64.10
2022-11-27T17:48:38.706Z,72.17
2022-11-27T17:53:41.841Z,65.07
2022-11-27T17:58:45.200Z,64.67
2022-11-27T18:03:48.940Z,61.27
2022-11-27T18:08:53.096Z,63.73
2022-11-27T18:13:56.536Z,66.50
2022-11-27T18:19:02.133Z,62.80
2022-11-27T18:24:23.469Z,65.47
2022-11-27T18:29:27.840Z,61.57
2022-11-27T18:34:31.118Z,64.73
2022-11-27T18:39:35.628Z,69.50
2022-11-27T18:44:44.701Z,73.67
2022-11-27T18:49:49.078Z,71.97
2022-11-27T18:54:52.602Z,78.43
2022-11-27T18:59:55.610Z,108.50
2022-11-27T19:04:58.520Z,177.70
2022-11-27T19:10:01.436Z,77.97
2022-11-27T19:15:05.037Z,79.67
2022-11-27T19:20:08.950Z,74.13
2022-11-27T19:25:12.520Z,66.13
2022-11-27T19:30:16.047Z,84.13
2022-11-27T19:35:24.813Z,65.13
2022-11-27T19:40:31.830Z,70.57
2022-11-27T19:45:36.418Z,68.47
2022-11-27T19:50:39.508Z,63.83
2022-11-27T19:55:42.594Z,62.93
2022-11-27T20:00:45.935Z,60.93
2022-11-27T20:05:49.740Z,62.00
2022-11-27T20:10:56.493Z,63.67
2022-11-27T20:15:59.668Z,63.43
2022-11-27T20:21:07.988Z,62.83
2022-11-27T20:26:15.757Z,120.77
2022-11-27T20:31:23.257Z,101.33
2022-11-27T20:36:26.609Z,81.77
2022-11-27T20:41:30.644Z,117.07
2022-11-27T20:46:34.577Z,103.40
2022-11-27T20:51:39.371Z,79.17
2022-11-27T20:56:45.919Z,79.93
2022-11-27T21:01:49.721Z,82.53
2022-11-27T21:06:53.557Z,72.57
2022-11-27T21:11:56.697Z,68.67
2022-11-27T21:17:04.460Z,64.10
2022-11-27T21:22:08.842Z,65.83
2022-11-27T21:27:12.230Z,78.13
2022-11-27T21:32:18.236Z,111.07
2022-11-27T21:37:22.793Z,66.73
2022-11-27T21:42:26.196Z,58.73
2022-11-27T21:47:29.067Z,68.87
2022-11-27T21:52:31.961Z,70.30
2022-11-27T21:57:35.507Z,67.50
2022-11-27T22:02:39.014Z,60.60
2022-11-27T22:07:42.267Z,68.87
2022-11-27T22:12:45.173Z,74.50
2022-11-27T22:17:48.936Z,69.73
2022-11-27T22:22:52.112Z,67.33
2022-11-27T22:27:55.589Z,68.17
2022-11-27T22:32:58.764Z,76.10
2022-11-27T22:38:01.688Z,64.17
2022-11-27T22:43:04.875Z,55.70
2022-11-27T22:48:10.381Z,59.97
2022-11-27T22:53:13.456Z,62.47
2022-11-27T22:58:16.609Z,57.13
2022-11-27T23:03:19.595Z,59.43
2022-11-27T23:08:22.719Z,60.70
2022-11-27T23:13:26.073Z,61.50
2022-11-27T23:18:29.230Z,63.10
2022-11-27T23:23:32.031Z,65.50
2022-11-27T23:28:36.884Z,72.43
2022-11-27T23:33:40.363Z,70.17
2022-11-27T23:38:43.488Z,71.53
2022-11-27T23:43:46.731Z,69.87
2022-11-27T23:48:50.041Z,70.17
2022-11-27T23:53:53.694Z,70.10
2022-11-27T23:58:56.888Z,77.67
